createdAt,value
2022-11-15T00:00:15.868Z,62.98
2022-11-15T00:02:44.136Z,62.86
2022-11-15T00:05:12.365Z,62.88
2022-11-15T00:08:17.825Z,63.43
2022-11-15T00:10:45.920Z,63.31
2022-11-15T00:13:14.172Z,63.39
2022-11-15T00:15:42.443Z,63.31
2022-11-15T00:18:10.665Z,63.34
2022-11-15T00:21:15.970Z,63.27
2022-11-15T00:23:44.277Z,63.36
2022-11-15T00:26:12.501Z,63.49
2022-11-15T00:29:17.803Z,63.57
2022-11-15T00:31:46.033Z,63.63
2022-11-15T00:34:14.297Z,64.73
2022-11-15T00:36:42.551Z,64.67
2022-11-15T00:39:10.789Z,64.47
2022-11-15T00:42:16.072Z,64.48
2022-11-15T00:44:44.326Z,64.69
2022-11-15T00:47:12.602Z,63.49
2022-11-15T00:50:46.799Z,64.67
2022-11-15T00:53:15.020Z,64.57
2022-11-15T00:55:43.279Z,64.64
2022-11-15T00:58:11.501Z,64.63
2022-11-15T01:01:16.954Z,64.79
2022-11-15T01:03:45.079Z,64.54
2022-11-15T01:06:13.307Z,63.88
2022-11-15T01:09:18.634Z,63.53
2022-11-15T01:11:46.869Z,63.74
2022-11-15T01:14:15.090Z,63.76
2022-11-15T01:16:43.413Z,64.56
2022-11-15T01:19:48.655Z,64.55
2022-11-15T01:22:16.909Z,64.79
2022-11-15T01:24:45.189Z,65.06
2022-11-15T01:27:13.407Z,65.42
2022-11-15T01:30:18.758Z,65.31
2022-11-15T01:32:47.010Z,65.53
2022-11-15T01:35:15.194Z,65.51
2022-11-15T01:38:57.636Z,65.38
2022-11-15T01:42:02.886Z,65.06
2022-11-15T01:45:08.210Z,64.81
2022-11-15T01:48:13.531Z,64.82
2022-11-15T01:51:10.644Z,64.78
2022-11-15T01:54:15.963Z,64.68
2022-11-15T01:56:44.194Z,64.72
2022-11-15T01:59:12.463Z,64.31
2022-11-15T02:02:17.768Z,64.61
2022-11-15T02:04:46.002Z,64.57
2022-11-15T02:07:51.324Z,64.74
2022-11-15T02:10:56.628Z,64.78
2022-11-15T02:14:39.008Z,64.46
2022-11-15T02:17:07.252Z,64.56
2022-11-15T02:19:35.472Z,63.73
2022-11-15T02:24:32.001Z,63.86
2022-11-15T02:28:14.340Z,64.7
2022-11-15T02:30:42.776Z,64.51
2022-11-15T02:33:10.835Z,63.84
2022-11-15T02:36:16.133Z,63.88
2022-11-15T02:38:44.408Z,64.5
2022-11-15T02:41:12.678Z,64.64
2022-11-15T02:44:55.021Z,63.84
2022-11-15T02:48:37.377Z,64.14
2022-11-15T02:53:34.136Z,64.76
2022-11-15T02:59:07.418Z,64.72
2022-11-15T03:02:04.570Z,64.95
2022-11-15T03:05:09.904Z,64.95
2022-11-15T03:08:15.178Z,65.05
2022-11-15T03:10:43.411Z,65.1
2022-11-15T03:13:11.689Z,65.08
2022-11-15T03:16:54.022Z,65.27
2022-11-15T03:19:59.373Z,65.27
2022-11-15T03:23:04.679Z,65.03
2022-11-15T03:26:09.980Z,65.13
2022-11-15T03:29:15.284Z,65.07
2022-11-15T03:31:48.678Z,65.15
2022-11-15T03:34:11.791Z,65.31
2022-11-15T03:37:17.108Z,65.15
2022-11-15T03:39:45.321Z,65.3
2022-11-15T03:42:13.570Z,65.09
2022-11-15T03:45:18.873Z,64.93
2022-11-15T03:47:47.159Z,65.04
2022-11-15T03:50:15.397Z,65.19
2022-11-15T03:52:43.625Z,65.16
2022-11-15T03:55:11.885Z,65.17
2022-11-15T03:58:17.182Z,65.15
2022-11-15T04:01:14.377Z,65.22
2022-11-15T04:04:19.620Z,65.21
2022-11-15T04:06:47.901Z,65.28
2022-11-15T04:09:16.205Z,65.04
2022-11-15T04:11:44.392Z,63.81
2022-11-15T04:14:12.632Z,64.39
2022-11-15T04:17:54.983Z,65.36
2022-11-15T04:21:00.290Z,65.06
2022-11-15T04:24:05.635Z,64.36
2022-11-15T04:27:10.887Z,65.32
2022-11-15T04:30:16.213Z,65.29
2022-11-15T04:32:44.453Z,65.24
2022-11-15T04:35:12.710Z,65.2
2022-11-15T04:38:55.087Z,65.01
2022-11-15T04:42:00.445Z,64.63
2022-11-15T04:45:05.687Z,64.5
2022-11-15T04:48:10.999Z,64.92
2022-11-15T04:51:16.329Z,64.38
2022-11-15T04:53:44.575Z,64.68
2022-11-15T04:56:12.825Z,64.82
2022-11-15T04:59:18.108Z,64.99
2022-11-15T05:01:42.090Z,66.19
2022-11-15T05:04:06.416Z,66.3
2022-11-15T05:07:11.765Z,66.12
2022-11-15T05:10:17.034Z,66.72
2022-11-15T05:12:45.291Z,66.45
2022-11-15T05:15:13.520Z,65.49
2022-11-15T05:18:23.236Z,65.12
2022-11-15T05:20:54.295Z,65.18
2022-11-15T05:23:15.327Z,64.94
2022-11-15T05:25:43.619Z,64.81
2022-11-15T05:28:11.819Z,64.83
2022-11-15T05:31:17.171Z,64.58
2022-11-15T05:33:45.406Z,64.78
2022-11-15T05:36:13.668Z,64.36
2022-11-15T05:39:18.937Z,64.32
2022-11-15T05:41:47.217Z,64.32
2022-11-15T05:44:52.519Z,64.45
2022-11-15T05:47:57.809Z,64.59
2022-11-15T05:51:03.106Z,64.64
2022-11-15T05:54:45.477Z,64.58
2022-11-15T06:01:33.173Z,64.52
2022-11-15T06:06:29.763Z,64.72
2022-11-15T06:10:12.051Z,64.97
2022-11-15T06:13:09.143Z,64.99
2022-11-15T06:16:14.450Z,64.54
2022-11-15T06:18:42.701Z,64.43
2022-11-15T06:21:10.950Z,65.18
2022-11-15T06:24:16.289Z,65.01
2022-11-15T06:26:44.505Z,65.13
2022-11-15T06:29:12.768Z,65.04
2022-11-15T06:32:18.068Z,65.1
2022-11-15T06:34:46.344Z,65.13
2022-11-15T06:37:14.593Z,65.26
2022-11-15T06:39:42.833Z,65.25
2022-11-15T06:42:11.082Z,65.5
2022-11-15T06:45:16.359Z,65.32
2022-11-15T06:47:44.672Z,65.28
2022-11-15T06:54:32.344Z,65.49
2022-11-15T06:59:28.789Z,65.24
2022-11-15T07:06:16.481Z,65.46
2022-11-15T07:08:44.722Z,65.38
2022-11-15T07:11:13.987Z,65.45
2022-11-15T07:14:10.095Z,65.49
2022-11-15T07:17:47.677Z,65.49
2022-11-15T07:19:43.644Z,65.43
2022-11-15T07:22:11.873Z,65.63
2022-11-15T07:25:17.231Z,65.58
2022-11-15T07:27:45.436Z,65.52
2022-11-15T07:30:15.607Z,65.51
2022-11-15T07:33:19.013Z,65.6
2022-11-15T07:35:47.276Z,65.59
2022-11-15T07:38:15.493Z,65.6
2022-11-15T07:40:43.745Z,65.58
2022-11-15T07:43:12.012Z,65.55
2022-11-15T07:46:17.320Z,65.55
2022-11-15T07:48:45.912Z,65.55
2022-11-15T07:51:14.133Z,65.72
2022-11-15T07:54:19.103Z,65.63
2022-11-15T07:56:47.384Z,65.76
2022-11-15T07:59:15.604Z,65.86
2022-11-15T08:01:43.902Z,65.91
2022-11-15T08:04:12.135Z,65.74
2022-11-15T08:07:54.452Z,65.68
2022-11-15T08:10:59.793Z,65.92
2022-11-15T08:13:56.886Z,66.06
2022-11-15T08:18:16.345Z,65.93
2022-11-15T08:20:44.580Z,65.7
2022-11-15T08:23:12.803Z,65.96
2022-11-15T08:26:18.138Z,66.1
2022-11-15T08:28:46.386Z,65.93
2022-11-15T08:31:14.628Z,66.08
2022-11-15T08:33:42.849Z,66.12
2022-11-15T08:36:11.136Z,66.12
2022-11-15T08:39:16.446Z,65.97
2022-11-15T08:42:21.761Z,65.84
2022-11-15T08:44:50.005Z,65.85
2022-11-15T08:47:18.245Z,65.77
2022-11-15T08:49:46.499Z,65.74
2022-11-15T08:52:14.712Z,65.55
2022-11-15T08:55:23.463Z,65.83
2022-11-15T08:57:48.319Z,65.7
2022-11-15T09:00:16.557Z,65.9
2022-11-15T09:02:44.761Z,66.54
2022-11-15T09:05:13.003Z,65.91
2022-11-15T09:08:45.828Z,65.67
2022-11-15T09:10:46.602Z,65.74
2022-11-15T09:13:06.638Z,66.23
2022-11-15T09:16:11.956Z,65.82
2022-11-15T09:19:17.267Z,66.13
2022-11-15T09:21:45.538Z,65.94
2022-11-15T09:24:13.780Z,66.38
2022-11-15T09:27:19.090Z,66.07
2022-11-15T09:29:47.343Z,66.12
2022-11-15T09:32:15.569Z,66.51
2022-11-15T09:34:43.802Z,65.92
2022-11-15T09:37:12.020Z,65.79
2022-11-15T09:40:17.375Z,67.17
2022-11-15T09:42:45.647Z,67.31
2022-11-15T09:45:13.872Z,67.62
2022-11-15T09:48:19.188Z,66.87
2022-11-15T09:50:47.453Z,66.32
2022-11-15T09:53:15.695Z,66.86
2022-11-15T09:55:43.891Z,67.04
2022-11-15T09:58:12.174Z,67.28
2022-11-15T10:01:17.525Z,68.08
2022-11-15T10:03:45.728Z,68.18
2022-11-15T10:06:13.934Z,67.4
2022-11-15T10:09:22.788Z,68.54
2022-11-15T10:11:47.558Z,68.33
2022-11-15T10:14:07.585Z,68.19
2022-11-15T10:17:12.887Z,67.51
2022-11-15T10:20:55.251Z,68.05
2022-11-15T10:24:00.553Z,67.85
2022-11-15T10:27:05.865Z,69.35
2022-11-15T10:30:11.209Z,67.71
2022-11-15T10:33:16.537Z,67.71
2022-11-15T10:35:44.748Z,67.24
2022-11-15T10:38:12.965Z,66.95
2022-11-15T10:41:18.316Z,67.6
2022-11-15T10:43:46.546Z,65.84
2022-11-15T10:46:39.741Z,67.12
2022-11-15T10:48:43.077Z,68.1
2022-11-15T10:51:11.268Z,64.5
2022-11-15T10:54:20.017Z,66.95
2022-11-15T10:56:44.858Z,65.46
2022-11-15T10:59:13.122Z,65.41
2022-11-15T11:02:18.391Z,67.64
2022-11-15T11:04:46.697Z,66.69
2022-11-15T11:07:14.940Z,68.65
2022-11-15T11:09:43.196Z,68.73
2022-11-15T11:12:11.411Z,64.21
2022-11-15T11:15:08.544Z,67.35
2022-11-15T11:18:13.827Z,64.45
2022-11-15T11:21:19.132Z,64.84
2022-11-15T11:23:47.390Z,65.97
2022-11-15T11:26:15.612Z,66.5
2022-11-15T11:28:43.896Z,65.12
2022-11-15T11:31:12.108Z,67.46
2022-11-15T11:34:17.457Z,65.19
2022-11-15T11:36:45.705Z,68.06
2022-11-15T11:39:13.948Z,66.91
2022-11-15T11:42:19.208Z,67.93
2022-11-15T11:44:47.508Z,68.14
2022-11-15T11:47:15.740Z,65.28
2022-11-15T11:49:43.945Z,66.07
2022-11-15T11:52:12.211Z,65.95
2022-11-15T11:55:17.773Z,64.03
2022-11-15T11:57:45.819Z,63.75
2022-11-15T12:00:14.040Z,66.31
2022-11-15T12:03:19.420Z,66.83
2022-11-15T12:05:47.595Z,65.36
2022-11-15T12:08:15.859Z,63.71
2022-11-15T12:10:44.081Z,66.8
2022-11-15T12:13:12.302Z,67.36
2022-11-15T12:16:46.491Z,65.86
2022-11-15T12:19:14.768Z,66.98
2022-11-15T12:21:43.026Z,66.12
2022-11-15T12:24:11.231Z,66.89
2022-11-15T12:27:18.628Z,67.04
2022-11-15T12:29:44.848Z,65.02
2022-11-15T12:34:07.200Z,67.91
2022-11-15T12:37:09.539Z,65.2
2022-11-15T12:40:14.894Z,65.92
2022-11-15T12:42:43.122Z,64.99
2022-11-15T12:45:11.366Z,65.35
2022-11-15T12:48:16.649Z,67.56
2022-11-15T12:50:44.908Z,64.32
2022-11-15T12:53:50.198Z,66.25
2022-11-15T12:56:18.459Z,66.31
2022-11-15T12:58:46.729Z,64.65
2022-11-15T13:01:15.028Z,65.72
2022-11-15T13:03:43.235Z,67.32
2022-11-15T13:06:11.480Z,66.35
2022-11-15T13:09:16.761Z,66.8
2022-11-15T13:11:45.046Z,65.45
2022-11-15T13:14:13.241Z,66.8
2022-11-15T13:17:55.635Z,65.73
2022-11-15T13:20:23.892Z,65.2
2022-11-15T13:28:09.292Z,65.15
2022-11-15T13:32:28.726Z,64.02
2022-11-15T13:34:57.045Z,64.07
2022-11-15T13:38:02.279Z,64.64
2022-11-15T13:41:07.643Z,64.49
2022-11-15T13:48:32.595Z,64.14
2022-11-15T13:53:28.813Z,66.27
2022-11-15T13:57:48.294Z,65.66
2022-11-15T14:00:16.626Z,63.5
2022-11-15T14:02:44.746Z,63.91
2022-11-15T14:05:13.012Z,64.05
2022-11-15T14:08:18.302Z,63.72
2022-11-15T14:14:28.937Z,65.42
2022-11-15T14:20:39.587Z,64.96
2022-11-15T14:23:07.806Z,64.32
2022-11-15T14:26:10.333Z,64.66
2022-11-15T14:29:10.223Z,64.42
2022-11-15T14:32:15.570Z,63.88
2022-11-15T14:35:20.860Z,63.55
2022-11-15T14:42:08.536Z,63.76
2022-11-15T14:48:19.195Z,63.29
2022-11-15T14:50:47.404Z,63.86
2022-11-15T14:53:15.669Z,64.48
2022-11-15T14:55:43.918Z,64.92
2022-11-15T15:02:31.568Z,65.75
2022-11-15T15:08:42.202Z,66.33
2022-11-15T15:11:47.521Z,64.96
2022-11-15T15:14:52.799Z,65.64
2022-11-15T15:17:58.120Z,66.08
2022-11-15T15:22:17.566Z,65.34
2022-11-15T15:29:42.311Z,66.19
2022-11-15T15:34:38.814Z,66.07
2022-11-15T15:36:58.814Z,66.26
2022-11-15T15:40:04.126Z,66.49
2022-11-15T15:43:09.481Z,66.71
2022-11-15T15:46:14.780Z,66.6
2022-11-15T15:50:34.194Z,66.55
2022-11-15T15:56:07.780Z,67.13
2022-11-15T16:01:04.326Z,66.64
2022-11-15T16:04:09.552Z,66.06
2022-11-15T16:07:14.933Z,66.06
2022-11-15T16:09:43.119Z,66.32
2022-11-15T16:12:11.353Z,66.48
2022-11-15T16:15:53.787Z,66.29
2022-11-15T16:18:59.061Z,66.15
2022-11-15T16:22:04.376Z,66.82
2022-11-15T16:25:09.673Z,66.1
2022-11-15T16:28:14.998Z,66.14
2022-11-15T16:30:43.285Z,66.27
2022-11-15T16:33:11.496Z,66.78
2022-11-15T16:36:16.786Z,66.89
2022-11-15T16:38:37.016Z,66.86
2022-11-15T16:41:05.103Z,66.91
2022-11-15T16:44:10.391Z,66.96
2022-11-15T16:47:15.714Z,66.83
2022-11-15T16:50:58.114Z,66.94
2022-11-15T16:54:03.387Z,67.12
2022-11-15T16:57:08.709Z,67.14
2022-11-15T17:00:14.034Z,67.03
2022-11-15T17:03:19.356Z,67.08
2022-11-15T17:05:47.594Z,67.01
2022-11-15T17:08:15.831Z,67.11
2022-11-15T17:10:44.058Z,67.11
2022-11-15T17:13:12.352Z,67.12
2022-11-15T17:16:17.639Z,67.14
2022-11-15T17:18:45.852Z,67.14
2022-11-15T17:21:14.149Z,67.19
2022-11-15T17:24:19.497Z,67.27
2022-11-15T17:26:47.704Z,67.39
2022-11-15T17:29:16.852Z,67.48
2022-11-15T17:31:44.234Z,67.3
2022-11-15T17:34:13.334Z,67.56
2022-11-15T17:36:40.693Z,67.56
2022-11-15T17:39:00.759Z,67.56
2022-11-15T17:42:06.020Z,67.57
2022-11-15T17:45:11.345Z,67.58
2022-11-15T17:48:16.669Z,67.54
2022-11-15T17:50:44.893Z,67.53
2022-11-15T17:53:13.142Z,67.47
2022-11-15T17:56:18.492Z,67.51
2022-11-15T17:58:46.712Z,67.45
2022-11-15T18:01:15.067Z,67.46
2022-11-15T18:03:43.214Z,67.54
2022-11-15T18:06:12.463Z,67.53
2022-11-15T18:09:16.770Z,67.66
2022-11-15T18:11:44.988Z,67.62
2022-11-15T18:14:13.280Z,67.43
2022-11-15T18:17:18.549Z,67.69
2022-11-15T18:19:46.807Z,67.66
2022-11-15T18:22:15.065Z,67.67
2022-11-15T18:24:43.335Z,67.56
2022-11-15T18:27:11.537Z,67.64
2022-11-15T18:30:16.923Z,67.56
2022-11-15T18:32:45.073Z,67.64
2022-11-15T18:35:13.384Z,67.68
2022-11-15T18:38:18.669Z,67.61
2022-11-15T18:40:38.735Z,67.54
2022-11-15T18:43:07.016Z,67.56
2022-11-15T18:46:12.300Z,67.62
2022-11-15T18:49:17.568Z,67.59
2022-11-15T18:51:45.841Z,67.61
2022-11-15T18:54:14.059Z,67.56
2022-11-15T18:57:19.376Z,67.72
2022-11-15T18:59:47.602Z,67.64
2022-11-15T19:02:15.895Z,67.53
2022-11-15T19:04:44.124Z,67.68
2022-11-15T19:07:12.475Z,67.71
2022-11-15T19:10:17.683Z,67.73
2022-11-15T19:12:45.953Z,67.77
2022-11-15T19:15:14.222Z,67.71
2022-11-15T19:18:19.502Z,67.82
2022-11-15T19:20:47.743Z,67.91
2022-11-15T19:23:15.991Z,67.98
2022-11-15T19:25:44.232Z,68.07
2022-11-15T19:28:12.505Z,68.03
2022-11-15T19:31:17.796Z,68.07
2022-11-15T19:33:46.052Z,68.19
2022-11-15T19:36:14.290Z,68.04
2022-11-15T19:39:11.425Z,68.08
2022-11-15T19:42:16.765Z,67.91
2022-11-15T19:44:44.982Z,68.08
2022-11-15T19:47:13.241Z,68.01
2022-11-15T19:50:18.526Z,68.1
2022-11-15T19:52:46.806Z,67.93
2022-11-15T19:55:15.000Z,68.07
2022-11-15T19:57:43.252Z,68.14
2022-11-15T20:00:11.589Z,68.34
2022-11-15T20:03:16.835Z,68.23
2022-11-15T20:05:45.048Z,68.33
2022-11-15T20:08:13.350Z,68.28
2022-11-15T20:11:18.610Z,68.29
2022-11-15T20:13:46.911Z,68.39
2022-11-15T20:16:15.096Z,68.38
2022-11-15T20:18:43.401Z,68.52
2022-11-15T20:21:11.580Z,68.41
2022-11-15T20:24:16.949Z,68.35
2022-11-15T20:26:45.184Z,68.32
2022-11-15T20:29:13.440Z,69.29
2022-11-15T20:32:18.708Z,67.99
2022-11-15T20:34:50.174Z,68.32
2022-11-15T20:37:15.214Z,68.38
2022-11-15T20:39:35.248Z,64.73
2022-11-15T20:42:03.531Z,68.87
2022-11-15T20:45:08.839Z,68.95
2022-11-15T20:48:14.154Z,68.67
2022-11-15T20:51:19.484Z,68.62
2022-11-15T20:53:47.847Z,68.72
2022-11-15T20:56:15.981Z,68.81
2022-11-15T20:58:44.176Z,68.73
2022-11-15T21:01:12.546Z,68.82
2022-11-15T21:04:17.753Z,68.81
2022-11-15T21:06:48.693Z,68.84
2022-11-15T21:09:14.222Z,68.71
2022-11-15T21:11:42.498Z,68.63
2022-11-15T21:14:10.728Z,68.8
2022-11-15T21:17:16.057Z,68.73
2022-11-15T21:19:44.303Z,68.78
2022-11-15T21:22:12.547Z,68.77
2022-11-15T21:25:17.858Z,68.81
2022-11-15T21:27:46.105Z,68.73
2022-11-15T21:30:14.433Z,68.77
2022-11-15T21:33:19.639Z,68.8
2022-11-15T21:35:47.931Z,68.65
2022-11-15T21:38:07.984Z,68.61
2022-11-15T21:41:13.262Z,68.49
2022-11-15T21:44:18.600Z,68.73
2022-11-15T21:46:46.820Z,68.7
2022-11-15T21:49:15.068Z,68.68
2022-11-15T21:51:43.318Z,68.65
2022-11-15T21:54:11.557Z,68.81
2022-11-15T21:57:16.888Z,68.84
2022-11-15T21:59:45.139Z,68.73
2022-11-15T22:02:13.393Z,68.76
2022-11-15T22:06:32.785Z,68.74
2022-11-15T22:09:01.068Z,68.79
2022-11-15T22:16:25.789Z,68.49
2022-11-15T22:18:54.054Z,68.14
2022-11-15T22:21:59.379Z,68.02
2022-11-15T22:25:04.638Z,68.59
2022-11-15T22:28:09.994Z,68.59
2022-11-15T22:31:15.292Z,68.52
2022-11-15T22:33:43.552Z,68.75
2022-11-15T22:36:11.780Z,68.76
2022-11-15T22:39:08.951Z,68.8
2022-11-15T22:42:29.906Z,68.73
2022-11-15T22:45:19.543Z,68.88
2022-11-15T22:47:47.781Z,68.68
2022-11-15T22:50:15.987Z,68.83
2022-11-15T22:52:44.275Z,68.88
2022-11-15T22:55:12.510Z,68.93
2022-11-15T22:58:17.847Z,68.92
2022-11-15T23:03:14.691Z,68.58
2022-11-15T23:06:19.603Z,68.62
2022-11-15T23:08:47.871Z,68.45
2022-11-15T23:11:16.161Z,68.64
2022-11-15T23:13:44.388Z,68.64
2022-11-15T23:16:12.642Z,68.62
2022-11-15T23:19:17.925Z,68.72
2022-11-15T23:21:46.196Z,68.52
2022-11-15T23:24:14.477Z,67.61
2022-11-15T23:27:19.789Z,68.02
2022-11-15T23:29:48.015Z,67.84
2022-11-15T23:32:16.248Z,67.93
2022-11-15T23:34:44.483Z,68.76
2022-11-15T23:37:12.713Z,68.69
2022-11-15T23:40:46.900Z,67.99
2022-11-15T23:43:15.225Z,68.11
2022-11-15T23:45:43.383Z,67.97
2022-11-15T23:48:11.622Z,68.12
2022-11-15T23:51:16.970Z,68.04
2022-11-15T23:53:45.201Z,67.8
2022-11-15T23:56:13.456Z,68.86
2022-11-15T23:59:18.747Z,68.48
